Time;durP1;ratioP1;P1;durP2;ratioP2;P2;SDS_P1;SDS_P2;PMS_P1;PMS_P2;Temp;Humidity;BMP_temperature;BMP_pressure;BME280_temperature;BME280_humidity;BME280_pressure;Samples;Min_cycle;Max_cycle;Signal;HPM_P1;HPM_P2
2023/02/12 00:00:20;;;;;;;36.22;18.35;;;;;;;0.39;73.88;102292.59;5009250;28;20030;-89
2023/02/12 00:02:46;;;;;;;31.30;18.38;;;;;;;0.38;74.10;102285.78;5009346;28;20033;-88
2023/02/12 00:05:11;;;;;;;28.20;16.58;;;;;;;0.34;73.71;102287.56;5016412;28;20052;-88
2023/02/12 00:07:37;;;;;;;30.73;17.40;;;;;;;0.28;74.66;102291.13;5025729;28;20037;-89
2023/02/12 00:10:02;;;;;;;26.92;14.25;;;;;;;0.49;72.60;102287.19;5027401;28;20064;-89
2023/02/12 00:12:28;;;;;;;26.88;14.85;;;;;;;0.73;71.57;102284.94;5013455;28;20060;-88
2023/02/12 00:14:53;;;;;;;23.30;11.60;;;;;;;0.93;69.72;102293.84;5006178;28;20105;-88
2023/02/12 00:17:19;;;;;;;21.52;10.77;;;;;;;1.09;69.24;102293.44;5008531;28;20060;-89
2023/02/12 00:19:46;;;;;;;15.65;9.27;;;;;;;1.22;67.44;102280.25;5008098;28;20048;-88
2023/02/12 00:22:11;;;;;;;13.98;7.68;;;;;;;1.49;65.08;102283.78;5013918;28;20511;-89
2023/02/12 00:24:37;;;;;;;9.07;5.93;;;;;;;1.74;63.46;102281.38;5009507;28;20359;-89
2023/02/12 00:27:02;;;;;;;7.38;4.15;;;;;;;2.06;60.69;102290.69;5012971;28;20037;-88
2023/02/12 00:29:28;;;;;;;8.70;4.93;;;;;;;2.11;60.73;102280.28;5011806;28;20042;-89
2023/02/12 00:31:53;;;;;;;9.10;4.32;;;;;;;2.13;60.37;102291.34;5014501;28;20037;-89
2023/02/12 00:34:18;;;;;;;10.63;5.55;;;;;;;2.21;59.80;102289.41;5029309;28;20392;-89
2023/02/12 00:36:44;;;;;;;12.18;6.53;;;;;;;2.12;60.67;102287.94;5004470;28;20030;-88
2023/02/12 00:39:10;;;;;;;11.30;5.30;;;;;;;2.12;60.51;102289.69;5013061;28;20067;-88
2023/02/12 00:41:36;;;;;;;11.15;5.28;;;;;;;2.10;60.53;102283.75;5029397;28;20034;-88
2023/02/12 00:44:01;;;;;;;12.20;5.65;;;;;;;2.09;61.08;102287.19;5010298;28;20465;-88
2023/02/12 00:46:27;;;;;;;10.18;5.00;;;;;;;2.03;61.43;102285.66;5030203;28;20025;-89
2023/02/12 00:48:53;;;;;;;17.85;6.57;;;;;;;1.81;62.55;102284.59;5013393;28;20034;-89
2023/02/12 00:51:18;;;;;;;11.10;5.65;;;;;;;1.76;62.99;102283.91;5030400;28;20119;-89
2023/02/12 00:53:43;;;;;;;10.95;5.80;;;;;;;1.66;63.26;102281.59;5029831;28;20091;-89
2023/02/12 00:56:09;;;;;;;10.57;5.57;;;;;;;1.49;64.12;102283.78;5013024;28;20025;-89
2023/02/12 00:58:34;;;;;;;9.50;5.70;;;;;;;1.33;65.16;102287.66;5009877;28;20384;-89
2023/02/12 01:01:00;;;;;;;14.80;5.72;;;;;;;1.39;65.18;102290.06;5011650;28;20139;-89
2023/02/12 01:03:25;;;;;;;13.52;6.38;;;;;;;1.45;64.62;102286.47;5011377;28;20414;-89
2023/02/12 01:05:52;;;;;;;10.88;5.22;;;;;;;1.49;64.83;102288.06;5011439;28;20050;-88
2023/02/12 01:08:17;;;;;;;11.32;4.82;;;;;;;1.69;63.76;102279.81;5027866;28;20358;-88
2023/02/12 01:10:44;;;;;;;12.45;5.00;;;;;;;1.94;62.27;102286.75;5026320;28;20041;-88
2023/02/12 01:13:13;;;;;;;8.90;4.28;;;;;;;2.05;61.73;102283.88;5011556;28;20033;-89
2023/02/12 01:15:40;;;;;;;10.93;4.47;;;;;;;2.13;60.90;102279.34;5028847;28;20037;-88
2023/02/12 01:18:06;;;;;;;9.90;4.25;;;;;;;2.19;60.60;102279.16;5010969;28;20033;-89
2023/02/12 01:20:31;;;;;;;8.98;4.72;;;;;;;2.14;60.85;102283.59;5008868;28;20025;-88
2023/02/12 01:22:57;;;;;;;12.35;6.22;;;;;;;1.92;61.87;102285.13;5028598;28;20025;-89
2023/02/12 01:25:22;;;;;;;12.40;6.10;;;;;;;1.66;62.40;102279.00;5009863;28;20477;-89
2023/02/12 01:27:48;;;;;;;15.27;8.43;;;;;;;1.48;63.83;102282.09;5011133;28;20442;-89
2023/02/12 01:30:14;;;;;;;15.13;7.80;;;;;;;1.23;65.00;102273.38;5010991;28;20555;-89
2023/02/12 01:32:40;;;;;;;17.10;9.32;;;;;;;1.58;62.38;102269.84;5028880;28;20056;-89
2023/02/12 01:35:08;;;;;;;22.48;12.48;;;;;;;1.48;63.76;102261.53;5023728;28;20037;-89
2023/02/12 01:37:36;;;;;;;16.13;9.73;;;;;;;1.35;64.14;102260.22;5024884;28;20033;-89
2023/02/12 01:40:02;;;;;;;19.33;8.73;;;;;;;1.45;63.45;102245.38;5005537;28;20088;-89
2023/02/12 01:42:27;;;;;;;10.43;6.13;;;;;;;1.57;63.07;102252.72;5008202;28;20034;-89
2023/02/12 01:45:11;;;;;;;13.35;6.10;;;;;;;1.64;62.57;102254.25;5026533;28;20041;-89
2023/02/12 01:47:37;;;;;;;18.58;10.18;;;;;;;1.56;63.10;102254.47;5024212;28;20115;-89
2023/02/12 01:50:05;;;;;;;20.50;9.95;;;;;;;1.32;64.72;102255.16;5025924;28;20496;-89
2023/02/12 01:52:35;;;;;;;17.65;9.98;;;;;;;0.98;65.57;102245.78;5006568;28;20034;-88
2023/02/12 01:55:05;;;;;;;21.65;12.23;;;;;;;0.85;66.44;102249.56;5008703;28;20397;-88
2023/02/12 01:57:33;;;;;;;21.77;11.15;;;;;;;0.93;66.02;102242.50;5021617;28;20037;-89
2023/02/12 02:00:02;;;;;;;19.33;10.23;;;;;;;0.99;65.44;102234.63;5009369;28;20034;-88
2023/02/12 02:02:27;;;;;;;19.45;9.45;;;;;;;0.89;66.08;102233.22;5005596;28;20034;-89
2023/02/12 02:04:58;;;;;;;18.80;10.43;;;;;;;0.94;65.96;102238.22;5020073;28;20052;-89
2023/02/12 02:07:23;;;;;;;20.08;11.98;;;;;;;0.79;66.31;102234.31;5008571;28;20132;-89
2023/02/12 02:09:49;;;;;;;22.50;11.90;;;;;;;0.68;66.76;102240.59;5007799;28;20112;-89
2023/02/12 02:15:00;;;;;;;11.50;6.80;;;;;;;1.11;64.71;102227.47;5021469;28;20350;-89
2023/02/12 02:17:51;;;;;;;9.45;5.10;;;;;;;1.50;62.56;102230.66;5010929;28;20464;-88
2023/02/12 02:20:42;;;;;;;8.10;3.83;;;;;;;1.81;60.28;102228.06;5022572;28;20464;-89
2023/02/12 02:23:46;;;;;;;8.93;4.32;;;;;;;2.01;59.65;102233.44;5005619;28;20476;-89
2023/02/12 02:26:44;;;;;;;17.65;8.65;;;;;;;1.71;61.62;102236.94;5017953;28;20135;-89
2023/02/12 02:29:22;;;;;;;13.38;6.53;;;;;;;1.59;62.06;102238.97;5002857;28;20389;-89
2023/02/12 02:32:05;;;;;;;10.52;5.97;;;;;;;1.65;61.89;102223.38;5022271;28;20428;-89
2023/02/12 02:34:54;;;;;;;8.73;5.20;;;;;;;1.82;61.07;102230.59;5029202;28;20025;-89
2023/02/12 02:37:34;;;;;;;7.72;4.57;;;;;;;1.75;61.67;102223.94;5010982;28;20030;-89
2023/02/12 02:40:12;;;;;;;9.27;4.03;;;;;;;1.79;61.63;102217.00;5015510;28;20128;-88
2023/02/12 02:42:44;;;;;;;6.97;3.70;;;;;;;1.78;62.00;102217.88;5010273;28;20116;-89
2023/02/12 02:45:17;;;;;;;8.93;3.47;;;;;;;1.80;61.57;102204.09;5011505;28;20057;-89
2023/02/12 02:47:52;;;;;;;12.77;4.70;;;;;;;1.83;61.97;102195.44;5009640;28;20109;-89
2023/02/12 02:50:25;;;;;;;7.82;3.90;;;;;;;1.83;61.64;102203.16;5010697;28;20476;-89
2023/02/12 02:53:13;;;;;;;9.48;3.92;;;;;;;1.83;61.14;102208.31;5006508;28;20041;-89
2023/02/12 02:56:00;;;;;;;11.20;4.55;;;;;;;1.86;61.48;102210.78;5010643;28;20025;-88
2023/02/12 02:58:34;;;;;;;9.38;3.83;;;;;;;1.85;61.18;102209.09;5023733;28;20034;-88
2023/02/12 03:01:04;;;;;;;7.53;3.42;;;;;;;1.82;61.14;102206.63;5011259;28;20029;-89
2023/02/12 03:03:49;;;;;;;5.95;3.15;;;;;;;1.87;61.07;102210.72;5007222;28;20124;-88
2023/02/12 03:06:25;;;;;;;9.25;3.47;;;;;;;1.82;60.90;102214.34;5026039;28;20041;-89
2023/02/12 03:08:56;;;;;;;8.90;4.07;;;;;;;1.82;60.95;102212.59;5006865;28;20088;-89
2023/02/12 03:11:26;;;;;;;7.90;3.70;;;;;;;1.81;61.11;102217.78;5007055;28;20384;-88
2023/02/12 03:14:01;;;;;;;6.68;3.80;;;;;;;1.79;61.36;102214.41;5010401;28;20074;-89
2023/02/12 03:16:32;;;;;;;7.70;3.75;;;;;;;1.73;61.18;102219.75;5007453;28;20139;-89
2023/02/12 03:19:01;;;;;;;5.72;3.10;;;;;;;1.73;61.56;102210.31;5012107;28;20051;-88
2023/02/12 03:21:40;;;;;;;6.53;3.53;;;;;;;1.69;61.85;102211.28;5020177;28;20034;-89
2023/02/12 03:24:52;;;;;;;6.88;3.38;;;;;;;1.61;61.59;102210.66;5030438;28;20041;-89
2023/02/12 03:27:30;;;;;;;6.32;3.50;;;;;;;1.57;61.67;102206.50;5025409;28;20033;-88
2023/02/12 03:29:57;;;;;;;7.75;3.50;;;;;;;1.55;61.99;102203.13;5028962;28;20044;-89
2023/02/12 03:32:34;;;;;;;11.73;4.40;;;;;;;1.51;62.25;102204.94;5032971;28;20039;-89
2023/02/12 03:35:24;;;;;;;6.75;3.25;;;;;;;1.54;61.94;102214.28;5010375;28;20050;-89
2023/02/12 03:38:09;;;;;;;7.80;3.70;;;;;;;1.57;61.67;102199.63;5027768;28;20037;-89
2023/02/12 03:40:46;;;;;;;9.40;3.87;;;;;;;1.58;61.54;102206.44;5025655;28;20459;-89
2023/02/12 03:43:32;;;;;;;6.25;3.15;;;;;;;1.59;61.01;102209.84;5028480;28;20284;-89
2023/02/12 03:46:00;;;;;;;;;;;;;;;1.44;61.65;102198.28;5030014;28;20029;-89
2023/02/12 03:48:35;;;;;;;9.55;5.43;;;;;;;1.23;62.41;102199.75;5013450;28;19923;-89
2023/02/12 03:51:08;;;;;;;12.27;6.70;;;;;;;1.07;63.12;102200.22;5012876;28;20041;-88
2023/02/12 03:53:34;;;;;;;10.35;5.55;;;;;;;0.98;63.55;102194.44;5012331;28;20037;-89
2023/02/12 03:56:12;;;;;;;10.70;6.32;;;;;;;0.97;63.55;102185.06;5005760;28;20030;-89
2023/02/12 03:58:39;;;;;;;10.30;4.85;;;;;;;0.95;64.28;102191.94;5016002;28;20018;-89
2023/02/12 04:01:05;;;;;;;8.65;3.95;;;;;;;1.10;63.84;102195.00;5034003;28;20042;-89
2023/02/12 04:03:31;;;;;;;6.72;3.70;;;;;;;1.27;63.01;102203.94;5044315;28;20017;-88
2023/02/12 04:05:57;;;;;;;7.28;3.25;;;;;;;1.35;62.71;102218.28;5053625;28;20050;-89
2023/02/12 04:08:24;;;;;;;5.30;3.08;;;;;;;1.38;62.45;102224.19;5035364;28;20455;-88
2023/02/12 04:11:12;;;;;;;8.23;3.70;;;;;;;1.42;61.83;102217.22;5035268;28;20018;-89
2023/02/12 04:14:22;;;;;;;5.13;2.65;;;;;;;1.46;62.33;102227.34;5046818;28;20181;-88
2023/02/12 04:17:06;;;;;;;5.13;2.92;;;;;;;1.48;61.47;102225.56;4998363;28;20049;-89
2023/02/12 04:19:50;;;;;;;6.88;3.03;;;;;;;1.52;61.46;102232.31;5000714;28;20413;-89
2023/02/12 04:22:49;;;;;;;6.03;3.40;;;;;;;1.49;61.71;102232.41;5012088;28;20369;-89
2023/02/12 04:25:38;;;;;;;5.03;2.65;;;;;;;1.51;61.85;102225.50;5023354;28;20045;-89
2023/02/12 04:28:09;;;;;;;8.60;3.28;;;;;;;1.51;62.08;102225.50;5014605;28;20136;-89
2023/02/12 04:30:44;;;;;;;6.60;2.80;;;;;;;1.52;61.78;102226.31;5026593;28;20038;-89
2023/02/12 04:33:15;;;;;;;8.52;3.13;;;;;;;1.54;61.49;102210.00;5030723;28;20116;-90
2023/02/12 04:36:15;;;;;;;5.20;3.35;;;;;;;1.52;61.66;102211.75;5003969;28;20037;-88
2023/02/12 04:38:49;;;;;;;5.85;2.88;;;;;;;1.45;62.23;102225.66;5004333;28;20049;-89
2023/02/12 04:41:15;;;;;;;8.85;4.03;;;;;;;1.39;62.31;102225.03;5010245;28;20041;-89
2023/02/12 04:43:40;;;;;;;6.40;3.17;;;;;;;1.41;62.33;102218.94;5031920;28;20126;-89
2023/02/12 04:46:08;;;;;;;6.05;3.22;;;;;;;1.45;61.79;102217.94;5027967;28;20043;-89
2023/02/12 04:48:36;;;;;;;6.68;3.25;;;;;;;1.45;61.78;102229.94;5012959;28;20037;-89
2023/02/12 04:51:01;;;;;;;6.07;3.28;;;;;;;1.49;61.34;102228.97;5031532;28;20096;-89
2023/02/12 04:53:27;;;;;;;6.57;3.35;;;;;;;1.43;61.99;102235.13;5012994;28;20021;-88
2023/02/12 04:55:54;;;;;;;7.53;3.20;;;;;;;1.38;62.04;102224.19;5031248;28;20124;-88
2023/02/12 04:58:19;;;;;;;5.85;3.35;;;;;;;1.42;61.70;102233.44;5014391;28;20048;-89
2023/02/12 05:00:45;;;;;;;7.95;4.18;;;;;;;1.30;62.29;102226.09;5012574;28;20434;-89
2023/02/12 05:03:10;;;;;;;6.38;3.17;;;;;;;1.32;62.30;102229.47;5013311;28;20033;-89
2023/02/12 05:05:35;;;;;;;6.88;3.33;;;;;;;1.49;61.88;102229.81;5010764;28;20068;-89
2023/02/12 05:08:01;;;;;;;10.57;6.60;;;;;;;1.18;62.90;102227.28;5028788;28;20031;-88
2023/02/12 05:10:26;;;;;;;15.48;9.48;;;;;;;0.62;64.99;102219.34;5023416;28;20112;-89
2023/02/12 05:12:53;;;;;;;14.23;8.70;;;;;;;0.35;66.19;102222.59;5010688;28;20461;-89
2023/02/12 05:15:19;;;;;;;14.75;8.57;;;;;;;0.14;66.96;102223.94;5029390;28;20018;-88
2023/02/12 05:17:45;;;;;;;16.02;8.38;;;;;;;0.04;67.04;102219.88;5026581;28;20117;-89
2023/02/12 05:20:11;;;;;;;19.23;8.27;;;;;;;0.03;67.18;102230.16;5011403;28;20025;-89
2023/02/12 05:22:36;;;;;;;15.68;8.68;;;;;;;-0.07;67.53;102238.09;5024480;28;20029;-89
2023/02/12 05:25:02;;;;;;;16.88;9.02;;;;;;;-0.16;68.14;102229.75;5012015;28;20052;-89
2023/02/12 05:27:28;;;;;;;12.13;5.25;;;;;;;0.12;67.71;102223.13;5007273;28;20087;-89
2023/02/12 05:29:53;;;;;;;6.88;3.20;;;;;;;0.63;65.84;102226.16;5011833;28;20034;-89
2023/02/12 05:32:19;;;;;;;6.10;3.42;;;;;;;0.96;64.59;102227.00;5027790;28;20033;-89
2023/02/12 05:34:44;;;;;;;4.15;2.42;;;;;;;1.19;63.62;102225.56;5006156;28;20040;-89
2023/02/12 05:37:09;;;;;;;6.80;2.88;;;;;;;1.26;63.67;102229.66;5025768;28;20068;-88
2023/02/12 05:39:35;;;;;;;6.50;2.60;;;;;;;1.30;63.53;102221.81;5008594;28;20048;-89
2023/02/12 05:42:00;;;;;;;6.15;3.13;;;;;;;1.30;63.17;102231.25;5008273;28;20136;-89
2023/02/12 05:44:26;;;;;;;6.43;3.40;;;;;;;1.20;63.45;102227.25;5023855;28;20095;-89
2023/02/12 05:46:51;;;;;;;5.50;2.90;;;;;;;1.08;63.93;102228.41;5003813;28;20025;-89
2023/02/12 05:49:16;;;;;;;7.20;2.88;;;;;;;1.22;63.99;102236.59;5027586;28;20472;-89
2023/02/12 05:51:42;;;;;;;8.07;2.72;;;;;;;1.40;62.95;102244.69;5011113;28;20029;-89
2023/02/12 05:54:08;;;;;;;5.32;2.75;;;;;;;1.49;62.91;102229.81;5028206;28;20036;-89
2023/02/12 05:56:40;;;;;;;5.63;2.65;;;;;;;1.51;62.71;102234.91;5012563;28;20041;-89
2023/02/12 05:59:11;;;;;;;9.05;4.82;;;;;;;1.20;64.04;102245.22;5009184;28;20029;-88
2023/02/12 06:01:40;;;;;;;13.57;8.05;;;;;;;0.68;65.40;102251.69;5006991;28;20460;-89
2023/02/12 06:04:09;;;;;;;16.77;9.80;;;;;;;0.28;66.83;102242.41;5027338;28;20400;-89
2023/02/12 06:06:35;;;;;;;17.88;9.55;;;;;;;0.07;67.59;102242.03;5025663;28;20505;-88
2023/02/12 06:09:01;;;;;;;17.30;9.90;;;;;;;-0.11;67.91;102244.16;5009175;28;20127;-88
2023/02/12 06:11:27;;;;;;;17.95;10.27;;;;;;;-0.20;68.37;102252.03;5021237;28;20037;-88
2023/02/12 06:13:52;;;;;;;15.48;9.05;;;;;;;-0.27;69.16;102245.34;5003532;28;20473;-88
2023/02/12 06:16:26;;;;;;;24.20;10.73;;;;;;;-0.35;69.71;102245.50;5021607;28;20040;-88
2023/02/12 06:18:53;;;;;;;17.33;10.60;;;;;;;-0.46;69.66;102247.44;5022648;28;20037;-89
2023/02/12 06:21:20;;;;;;;14.38;9.15;;;;;;;-0.24;69.39;102244.44;5011420;28;20043;-89
2023/02/12 06:23:46;;;;;;;10.10;5.18;;;;;;;0.53;67.64;102246.94;5006245;28;20024;-89
2023/02/12 06:26:12;;;;;;;8.52;4.55;;;;;;;0.92;65.69;102239.97;5015451;28;20121;-88
2023/02/12 06:28:37;;;;;;;5.70;3.47;;;;;;;1.19;64.82;102243.53;5005755;28;20439;-88
2023/02/12 06:31:03;;;;;;;7.82;2.90;;;;;;;1.13;65.23;102241.13;5012186;28;20068;-89
2023/02/12 06:33:28;;;;;;;6.85;2.58;;;;;;;0.97;65.73;102231.25;5006413;28;20060;-88
2023/02/12 06:35:54;;;;;;;8.27;3.47;;;;;;;0.79;66.03;102239.44;5019689;28;20389;-89
2023/02/12 06:38:19;;;;;;;7.28;3.17;;;;;;;0.83;66.33;102240.22;5026216;28;20040;-89
2023/02/12 06:40:45;;;;;;;4.85;3.00;;;;;;;0.86;66.33;102235.00;5019259;28;20056;-89
2023/02/12 06:43:10;;;;;;;6.10;3.33;;;;;;;1.05;65.67;102236.19;5020234;28;20143;-88
2023/02/12 06:45:36;;;;;;;6.55;3.13;;;;;;;1.24;64.91;102241.69;5024307;28;20056;-87
2023/02/12 06:48:01;;;;;;;5.32;3.05;;;;;;;1.36;64.54;102246.50;5012215;28;20099;-88
2023/02/12 06:50:28;;;;;;;6.50;3.47;;;;;;;1.28;65.24;102243.28;5030115;28;20125;-88
2023/02/12 06:52:53;;;;;;;7.38;2.92;;;;;;;1.11;66.95;102243.72;5012028;28;20349;-88
2023/02/12 06:55:19;;;;;;;6.63;3.72;;;;;;;0.99;68.17;102247.47;5005801;28;20092;-87
2023/02/12 06:57:44;;;;;;;8.82;3.28;;;;;;;1.07;67.42;102247.25;5012233;28;20091;-88
2023/02/12 07:00:11;;;;;;;5.13;2.75;;;;;;;1.46;65.87;102253.03;5034506;28;20033;-87
2023/02/12 07:02:36;;;;;;;7.47;3.92;;;;;;;1.74;65.18;102267.69;5033606;28;20361;-88
2023/02/12 07:05:02;;;;;;;6.28;2.60;;;;;;;2.18;62.62;102263.78;5016204;28;20061;-89
2023/02/12 07:07:28;;;;;;;5.90;2.85;;;;;;;2.34;61.96;102277.84;5029953;28;20451;-89
2023/02/12 07:09:53;;;;;;;9.07;4.43;;;;;;;2.43;61.36;102280.13;5012026;28;20038;-89
2023/02/12 07:12:18;;;;;;;12.95;6.13;;;;;;;2.19;62.18;102292.03;5013061;28;20057;-89
2023/02/12 07:14:44;;;;;;;10.57;6.18;;;;;;;2.06;62.97;102284.72;5015678;28;20374;-89
2023/02/12 07:17:09;;;;;;;11.30;7.00;;;;;;;2.03;63.72;102279.66;5013323;28;20115;-89
2023/02/12 07:19:35;;;;;;;12.05;6.93;;;;;;;2.11;63.06;102275.97;5006825;28;20057;-89
2023/02/12 07:22:02;;;;;;;14.85;8.48;;;;;;;2.12;63.44;102280.22;5028306;28;20039;-89
2023/02/12 07:24:27;;;;;;;16.25;9.23;;;;;;;2.12;63.54;102277.66;5011810;28;20110;-88
2023/02/12 07:26:53;;;;;;;14.85;9.40;;;;;;;2.17;63.87;102282.66;5032211;28;20481;-88
2023/02/12 07:29:18;;;;;;;16.48;10.15;;;;;;;2.18;64.01;102285.19;5009813;28;20050;-89
2023/02/12 07:31:44;;;;;;;14.85;8.82;;;;;;;2.28;62.99;102286.59;5015011;28;20384;-88
2023/02/12 07:34:10;;;;;;;22.25;12.23;;;;;;;2.36;62.91;102293.25;5031413;28;20029;-88
2023/02/12 07:36:36;;;;;;;19.67;11.50;;;;;;;2.33;63.41;102294.19;5013101;28;20484;-88
2023/02/12 07:39:04;;;;;;;21.08;12.60;;;;;;;2.34;63.48;102290.72;5014496;28;20041;-88
2023/02/12 07:41:33;;;;;;;20.42;11.65;;;;;;;2.37;62.79;102295.75;5013744;28;20342;-88
2023/02/12 07:44:08;;;;;;;20.33;11.90;;;;;;;2.43;62.90;102297.28;5014427;28;20087;-88
2023/02/12 07:46:37;;;;;;;26.20;13.82;;;;;;;2.45;62.97;102303.22;5013661;28;20032;-87
2023/02/12 07:49:05;;;;;;;24.77;12.40;;;;;;;2.47;62.53;102311.72;5013632;28;20029;-88
2023/02/12 07:51:33;;;;;;;26.40;12.32;;;;;;;2.54;62.73;102297.78;5028913;28;20025;-88
2023/02/12 07:54:01;;;;;;;22.75;11.60;;;;;;;2.64;62.19;102314.63;5031899;28;20048;-88
2023/02/12 07:56:31;;;;;;;18.60;11.77;;;;;;;2.71;62.46;102310.97;5012138;28;20738;-88
2023/02/12 07:58:58;;;;;;;22.10;12.85;;;;;;;2.86;61.69;102300.16;5032405;28;20044;-88
2023/02/12 08:01:27;;;;;;;17.42;9.77;;;;;;;2.91;61.32;102303.41;5013896;28;20068;-88
2023/02/12 08:03:56;;;;;;;16.90;8.68;;;;;;;3.03;61.33;102301.34;5033395;28;20116;-89
2023/02/12 08:06:28;;;;;;;22.65;7.47;;;;;;;3.31;60.59;102302.06;5012277;28;20037;-90
2023/02/12 08:08:55;;;;;;;13.88;6.05;;;;;;;3.48;60.82;102301.47;5012914;28;20080;-88
2023/02/12 08:11:21;;;;;;;7.70;4.60;;;;;;;3.62;60.96;102297.53;5013230;28;20024;-89
2023/02/12 08:13:47;;;;;;;9.10;4.88;;;;;;;3.72;61.00;102310.09;5030609;28;20334;-88
2023/02/12 08:16:18;;;;;;;8.75;4.70;;;;;;;3.88;60.86;102304.28;5032688;28;20469;-88
2023/02/12 08:18:44;;;;;;;8.00;4.82;;;;;;;3.96;61.39;102306.56;5012910;28;20025;-88
2023/02/12 08:21:17;;;;;;;5.32;3.95;;;;;;;4.27;59.58;102304.50;5032822;28;20083;-89
2023/02/12 08:23:43;;;;;;;7.97;3.47;;;;;;;4.53;58.97;102300.06;5030239;28;20112;-89
2023/02/12 08:26:13;;;;;;;6.68;3.30;;;;;;;4.78;57.46;102299.91;5014497;28;20033;-89
2023/02/12 08:28:41;;;;;;;7.63;3.00;;;;;;;4.98;57.07;102307.69;5009955;28;20120;-88
2023/02/12 08:31:10;;;;;;;4.38;2.75;;;;;;;5.03;57.95;102312.66;5022930;28;20544;-89
2023/02/12 08:33:36;;;;;;;10.15;3.58;;;;;;;5.10;57.99;102314.09;5012744;28;20370;-88
2023/02/12 08:36:08;;;;;;;8.25;4.32;;;;;;;5.25;57.46;102316.00;5025098;28;20033;-88
2023/02/12 08:38:35;;;;;;;12.30;5.95;;;;;;;5.34;58.09;102323.38;5027348;28;20061;-88
2023/02/12 08:41:06;;;;;;;13.23;6.93;;;;;;;5.42;58.70;102323.03;5009221;28;20048;-89
2023/02/12 08:43:31;;;;;;;11.88;7.25;;;;;;;5.41;59.60;102323.94;5012554;28;20108;-89
2023/02/12 08:46:05;;;;;;;14.27;8.60;;;;;;;5.44;59.88;102331.56;5030758;28;20195;-89
2023/02/12 08:48:31;;;;;;;16.05;10.23;;;;;;;5.48;60.14;102325.38;5027530;28;20025;-88
2023/02/12 08:51:05;;;;;;;17.70;11.63;;;;;;;5.42;60.60;102323.03;5027217;28;20409;-87
2023/02/12 08:53:31;;;;;;;19.45;11.85;;;;;;;5.38;60.99;102329.25;5009529;28;20038;-88
2023/02/12 08:55:56;;;;;;;18.45;11.30;;;;;;;5.46;60.93;102334.94;5009145;28;20315;-89
2023/02/12 08:58:21;;;;;;;21.10;11.98;;;;;;;5.49;60.90;102338.22;5010094;28;20426;-89
2023/02/12 09:00:47;;;;;;;17.38;11.55;;;;;;;5.51;61.04;102336.41;5025526;28;20033;-88
2023/02/12 09:03:12;;;;;;;20.27;12.38;;;;;;;5.52;61.38;102332.94;5014203;28;20037;-89
2023/02/12 09:05:40;;;;;;;22.20;13.35;;;;;;;5.49;61.29;102335.63;5011392;28;20049;-89
2023/02/12 09:08:05;;;;;;;17.63;11.75;;;;;;;5.63;61.43;102335.06;5026439;28;20060;-89
2023/02/12 09:10:31;;;;;;;19.38;11.05;;;;;;;5.68;61.04;102343.41;5030517;28;20065;-89
2023/02/12 09:12:56;;;;;;;17.13;10.30;;;;;;;5.73;60.98;102340.63;5029534;28;20099;-89
2023/02/12 09:15:21;;;;;;;18.23;9.85;;;;;;;5.75;60.80;102333.63;5024412;28;20356;-88
2023/02/12 09:17:47;;;;;;;15.23;8.98;;;;;;;5.75;60.49;102341.41;5014117;28;20049;-89
2023/02/12 09:20:12;;;;;;;15.52;9.23;;;;;;;5.83;60.08;102342.75;5009188;28;20037;-89
2023/02/12 09:22:38;;;;;;;14.35;8.68;;;;;;;5.87;59.87;102349.47;5008655;28;20033;-89
2023/02/12 09:25:05;;;;;;;17.35;9.20;;;;;;;5.94;60.05;102352.66;5014301;28;20038;-88
2023/02/12 09:27:31;;;;;;;14.70;8.57;;;;;;;5.93;60.14;102348.38;5025501;28;20079;-88
2023/02/12 09:29:56;;;;;;;18.17;11.10;;;;;;;5.91;60.63;102356.22;5005894;28;20034;-88
2023/02/12 09:32:21;;;;;;;19.02;12.20;;;;;;;5.91;61.21;102350.19;5008682;28;20558;-88
2023/02/12 09:34:47;;;;;;;19.45;12.20;;;;;;;5.88;61.45;102353.72;5023194;28;20034;-88
2023/02/12 09:37:12;;;;;;;21.23;11.98;;;;;;;5.93;61.55;102361.31;5026956;28;20044;-88
2023/02/12 09:39:39;;;;;;;19.67;13.15;;;;;;;6.00;62.18;102365.31;5018188;28;20029;-88
2023/02/12 09:42:04;;;;;;;23.75;14.00;;;;;;;6.10;61.62;102376.94;5009235;28;20017;-89
2023/02/12 09:44:50;;;;;;;21.83;14.73;;;;;;;6.16;61.43;102384.41;5030683;28;20436;-88
2023/02/12 09:47:34;;;;;;;20.40;13.95;;;;;;;6.21;61.71;102385.03;5015530;28;20167;-88
2023/02/12 09:50:28;;;;;;;21.48;13.80;;;;;;;6.38;61.16;102381.69;5015637;28;20052;-89
2023/02/12 09:52:56;;;;;;;26.75;15.00;;;;;;;6.56;60.87;102391.19;5016624;28;20041;-88
2023/02/12 09:55:26;;;;;;;26.60;16.15;;;;;;;6.60;60.77;102404.84;5006100;28;20026;-87
2023/02/12 09:57:52;;;;;;;25.25;15.32;;;;;;;6.65;60.62;102402.84;5032892;28;20079;-88
2023/02/12 10:00:22;;;;;;;25.60;15.35;;;;;;;6.73;60.73;102408.50;5014463;28;20034;-88
2023/02/12 10:02:50;;;;;;;18.17;11.75;;;;;;;6.82;59.95;102408.06;5013416;28;20022;-88
2023/02/12 10:05:37;;;;;;;16.38;11.45;;;;;;;6.91;59.22;102406.81;5022843;28;20138;-89
2023/02/12 10:08:21;;;;;;;21.58;12.75;;;;;;;7.08;59.37;102406.00;5008628;28;20032;-88
2023/02/12 10:10:52;;;;;;;18.63;12.77;;;;;;;7.20;59.49;102405.38;5012652;28;20396;-89
2023/02/12 10:13:42;;;;;;;20.60;13.93;;;;;;;7.27;58.95;102409.34;5015419;28;20037;-89
2023/02/12 10:16:39;;;;;;;20.50;13.40;;;;;;;7.37;58.63;102405.38;5027075;28;20029;-89
2023/02/12 10:19:14;;;;;;;21.40;13.35;;;;;;;7.41;58.92;102419.88;5024893;28;20174;-88
2023/02/12 10:22:00;;;;;;;18.85;12.57;;;;;;;7.46;57.65;102412.69;5028585;28;20065;-88
2023/02/12 10:25:03;;;;;;;25.15;12.50;;;;;;;7.64;57.49;102411.75;5018124;28;20041;-88
2023/02/12 10:27:35;;;;;;;21.63;12.10;;;;;;;7.68;57.65;102419.38;5003300;28;20043;-89
2023/02/12 10:30:12;;;;;;;17.77;11.50;;;;;;;7.76;57.55;102422.41;5014623;28;20037;-88
2023/02/12 10:32:39;;;;;;;18.85;11.50;;;;;;;7.83;57.64;102413.41;5026616;28;20151;-88
2023/02/12 10:35:13;;;;;;;17.77;12.38;;;;;;;7.86;57.35;102419.28;5030062;28;20034;-88
2023/02/12 10:37:56;;;;;;;19.98;11.60;;;;;;;7.89;56.88;102419.13;5029282;28;20056;-88
2023/02/12 10:40:30;;;;;;;19.27;12.43;;;;;;;8.05;57.06;102415.69;5024325;28;20511;-87
2023/02/12 10:42:57;;;;;;;20.10;13.10;;;;;;;8.23;57.04;102423.38;5023914;28;20492;-89
2023/02/12 10:45:39;;;;;;;17.52;11.63;;;;;;;8.48;55.51;102419.50;5028182;28;20125;-88
2023/02/12 10:48:08;;;;;;;18.98;12.07;;;;;;;8.64;55.35;102412.50;5019156;28;20033;-89
2023/02/12 10:50:40;;;;;;;23.35;14.63;;;;;;;8.71;55.13;102421.66;5028848;28;20029;-89
2023/02/12 10:53:16;;;;;;;21.05;14.35;;;;;;;8.67;55.34;102422.75;5012051;28;20439;-89
2023/02/12 10:55:42;;;;;;;21.58;14.75;;;;;;;8.72;55.01;102410.31;5024682;28;20037;-89
2023/02/12 10:58:18;;;;;;;24.73;14.05;;;;;;;8.81;54.04;102417.63;5030362;28;20025;-88
2023/02/12 11:00:44;;;;;;;;;;;;;;;8.89;52.30;102415.44;5012011;28;20041;-89
2023/02/12 11:03:12;;;;;;;16.40;9.40;;;;;;;9.03;53.30;102404.22;5011393;28;19919;-89
2023/02/12 11:05:41;;;;;;;13.63;8.77;;;;;;;9.14;52.23;102404.47;5028803;28;20124;-88
2023/02/12 11:08:07;;;;;;;9.50;6.55;;;;;;;9.24;51.63;102402.16;5029800;28;20030;-89
2023/02/12 11:10:37;;;;;;;9.50;6.00;;;;;;;9.23;50.42;102400.50;5011684;28;20048;-89
2023/02/12 11:13:03;;;;;;;8.23;4.53;;;;;;;9.41;49.59;102403.78;5010485;28;20155;-90
2023/02/12 11:15:45;;;;;;;8.07;5.22;;;;;;;9.49;49.14;102404.16;5028602;28;20524;-89
2023/02/12 11:18:20;;;;;;;8.07;4.88;;;;;;;9.58;48.74;102396.66;5024764;28;20354;-88
2023/02/12 11:20:56;;;;;;;8.23;4.78;;;;;;;9.83;47.97;102405.59;5011275;28;20063;-89
2023/02/12 11:23:26;;;;;;;;;;;;;;;9.94;45.53;102398.78;5014061;28;20500;-88
2023/02/12 11:26:05;;;;;;;6.68;4.10;;;;;;;10.06;47.30;102397.22;5011617;28;19923;-89
2023/02/12 11:28:33;;;;;;;7.55;4.03;;;;;;;10.11;47.77;102400.38;5012598;28;20451;-88
2023/02/12 11:31:20;;;;;;;6.72;3.40;;;;;;;10.02;47.12;102398.34;5023426;28;20026;-89
2023/02/12 11:33:45;;;;;;;6.07;3.40;;;;;;;10.01;47.11;102391.44;5029055;28;20033;-90
2023/02/12 11:36:18;;;;;;;8.32;3.55;;;;;;;9.93;47.00;102386.69;5026950;28;20021;-89
2023/02/12 11:38:58;;;;;;;5.35;3.65;;;;;;;10.12;46.24;102391.63;5027744;28;20025;-89
2023/02/12 11:41:40;;;;;;;6.45;3.83;;;;;;;10.26;45.84;102394.25;5013485;28;20507;-89
2023/02/12 11:44:17;;;;;;;5.32;3.70;;;;;;;10.36;45.86;102394.53;5023049;28;20033;-89